This is the latest recevied weather packets stored in our database for station/object W4SMH. If no packets are shown the sender has not sent any weather packets the latest 10 day(s).
| Time | Temp. | Humidity | Pressure | Rain* | Wind** | Luminosity | Snow |
|---|---|---|---|---|---|---|---|
| 1777979602 | 7.22° C | 61% | 1005 hPa | 0 mm | - | 19 W/m² | - |
| 1777979544 | 7.22° C | 61% | 1005 hPa | 0 mm | - | 18 W/m² | - |
| 1777979515 | 7.22° C | 61% | 1005.1 hPa | 0 mm | - | 16 W/m² | - |
| 1777979480 | 7.22° C | 61% | 1005.1 hPa | 0 mm | - | 16 W/m² | - |
| 1777979298 | 7.22° C | 61% | 1005.4 hPa | 0 mm | - | 14 W/m² | - |
| 1777979237 | 7.22° C | 61% | 1005.3 hPa | 0 mm | - | 11 W/m² | - |
| 1777978788 | 7.22° C | 61% | 1005.5 hPa | 0 mm | - | 7 W/m² | - |
| 1777978586 | 7.22° C | 61% | 1005.5 hPa | 0 mm | - | 5 W/m² | - |
| 1777978476 | 7.22° C | 62% | 1005.6 hPa | 0 mm | - | 5 W/m² | - |
| 1777978325 | 7.22° C | 61% | 1005.5 hPa | 0 mm | - | 0 W/m² | - |
| 1777978289 | 7.22° C | 61% | 1005.5 hPa | 0 mm | - | 0 W/m² | - |
| 1777977740 | 7.22° C | 62% | 1005.3 hPa | 0 mm | - | 0 W/m² | - |
| 1777977709 | 7.22° C | 61% | 1005.2 hPa | 0 mm | - | 0 W/m² | - |
| 1777976826 | 7.22° C | 62% | 1004.8 hPa | 0 mm | - | 0 W/m² | - |
| 1777976397 | 7.78° C | 62% | 1004.9 hPa | 0 mm | - | 0 W/m² | - |
| 1777976340 | 7.78° C | 62% | 1004.9 hPa | 0 mm | - | 0 W/m² | - |
| 1777975662 | 7.78° C | 60% | 1005 hPa | 0 mm | - | 0 W/m² | - |
| 1777975297 | 7.78° C | 60% | 1004.7 hPa | 0 mm | - | 0 W/m² | - |
| 1777975219 | 7.78° C | 59% | 1004.6 hPa | 0 mm | - | 0 W/m² | - |
| 1777974523 | 14.44° C | 63% | 1003.6 hPa | 0 mm | - | 0 W/m² | - |
| 1777974491 | 14.44° C | 62% | 1003.6 hPa | 0 mm | - | 0 W/m² | - |
| 1777974447 | 7.78° C | 59% | 1004.3 hPa | 0 mm | - | 0 W/m² | - |
| 1777974437 | 14.44° C | 61% | 1003.5 hPa | 0 mm | - | 0 W/m² | - |
| 1777974375 | 15.56° C | 57% | 1003.3 hPa | 0 mm | - | 0 W/m² | - |
| 1777974328 | 7.78° C | 60% | 1004.2 hPa | 0 mm | - | 0 W/m² | - |
* Rain latest hour (hover to see other rain measurements)
** Current wind speed in m/s (hover to see current wind gust speed)